createdAt,value
2018-07-21T00:02:04.590Z,100954.63
2018-07-21T00:04:31.616Z,100954.48
2018-07-21T00:06:58.638Z,100948.84
2018-07-21T00:09:26.112Z,100948.05
2018-07-21T00:11:53.128Z,100946.44
2018-07-21T00:14:20.125Z,100953.26
2018-07-21T00:16:47.104Z,100951.14
2018-07-21T00:19:14.082Z,100949.48
2018-07-21T00:21:41.256Z,100954.14
2018-07-21T00:24:08.949Z,100950.86
2018-07-21T00:26:49.218Z,100946.73
2018-07-21T00:29:17.108Z,100950.90
2018-07-21T00:31:44.146Z,100946.09
2018-07-21T00:34:11.133Z,100953.41
2018-07-21T00:36:38.669Z,100947.45
2018-07-21T00:39:08.809Z,100946.81
2018-07-21T00:41:35.817Z,100947.65
2018-07-21T00:44:02.849Z,100945.84
2018-07-21T00:46:29.937Z,100951.83
2018-07-21T00:48:56.932Z,100946.86
2018-07-21T00:51:23.941Z,100943.08
2018-07-21T00:53:51.333Z,100938.11
2018-07-21T00:56:18.304Z,100939.44
2018-07-21T00:58:45.310Z,100939.28
2018-07-21T01:01:12.292Z,100941.79
2018-07-21T01:03:39.322Z,100938.49
2018-07-21T01:06:06.321Z,100943.98
2018-07-21T01:08:33.397Z,100943.80
2018-07-21T01:11:00.401Z,100943.46
2018-07-21T01:13:27.381Z,100940.16
2018-07-21T01:15:54.398Z,100928.27
2018-07-21T01:18:21.402Z,100942.66
2018-07-21T01:20:48.484Z,100940.70
2018-07-21T01:23:15.494Z,100942.66
2018-07-21T01:25:42.529Z,100946.83
2018-07-21T01:28:09.619Z,100946.83
2018-07-21T01:30:36.602Z,100954.63
2018-07-21T01:33:03.632Z,100947.17
2018-07-21T01:35:30.744Z,100941.03
2018-07-21T01:37:57.750Z,100946.52
2018-07-21T01:40:24.747Z,100946.86
2018-07-21T01:42:52.077Z,100946.22
2018-07-21T01:45:19.069Z,100948.22
2018-07-21T01:47:46.050Z,100954.51
2018-07-21T01:50:13.049Z,100951.20
2018-07-21T01:52:40.042Z,100950.75
2018-07-21T01:55:07.122Z,100947.41
2018-07-21T01:57:34.149Z,100947.27
2018-07-21T02:00:01.121Z,100948.89
2018-07-21T02:02:28.170Z,100949.88
2018-07-21T02:04:55.161Z,100948.56
2018-07-21T02:07:22.153Z,100936.59
2018-07-21T02:09:49.150Z,100940.23
2018-07-21T02:12:16.245Z,100938.08
2018-07-21T02:14:43.252Z,100938.08
2018-07-21T02:17:10.625Z,100941.72
2018-07-21T02:19:37.710Z,100940.91
2018-07-21T02:22:04.745Z,100937.77
2018-07-21T02:24:31.981Z,100933.30
2018-07-21T02:26:58.959Z,100929.55
2018-07-21T02:29:25.949Z,100935.34
2018-07-21T02:31:52.917Z,100938.02
2018-07-21T02:34:20.009Z,100944.83
2018-07-21T02:36:47.017Z,100938.05
2018-07-21T02:39:14.069Z,100939.06
2018-07-21T02:41:41.285Z,100937.05
2018-07-21T02:44:08.312Z,100933.11
2018-07-21T02:46:35.497Z,100933.44
2018-07-21T02:49:02.505Z,100931.95
2018-07-21T02:51:29.585Z,100933.80
2018-07-21T02:53:56.680Z,100932.50
2018-07-21T02:56:23.661Z,100929.20
2018-07-21T02:58:50.821Z,100931.02
2018-07-21T03:01:17.858Z,100932.49
2018-07-21T03:03:45.474Z,100929.05
2018-07-21T03:06:12.482Z,100935.33
2018-07-21T03:08:39.497Z,100933.52
2018-07-21T03:11:06.558Z,100937.48
2018-07-21T03:13:33.674Z,100933.17
2018-07-21T03:16:00.667Z,100925.72
2018-07-21T03:18:27.701Z,100928.55
2018-07-21T03:20:54.665Z,100929.53
2018-07-21T03:23:21.658Z,100935.19
2018-07-21T03:25:48.600Z,100941.31
2018-07-21T03:28:15.552Z,100937.17
2018-07-21T03:30:42.650Z,100939.48
2018-07-21T03:33:09.562Z,100927.56
2018-07-21T03:35:36.545Z,100930.55
2018-07-21T03:38:03.860Z,100926.75
2018-07-21T03:40:30.905Z,100932.04
2018-07-21T03:42:57.820Z,100922.59
2018-07-21T03:45:24.812Z,100924.59
2018-07-21T03:47:51.768Z,100922.59
2018-07-21T03:50:18.737Z,100923.74
2018-07-21T03:52:45.918Z,100926.39
2018-07-21T03:55:13.085Z,100929.53
2018-07-21T03:57:40.013Z,100924.75
2018-07-21T04:00:07.079Z,100922.59
2018-07-21T04:02:34.061Z,100918.28
2018-07-21T04:05:01.050Z,100914.34
2018-07-21T04:07:28.096Z,100913.02
2018-07-21T04:09:55.089Z,100913.69
2018-07-21T04:12:22.064Z,100918.15
2018-07-21T04:14:49.138Z,100913.34
2018-07-21T04:17:21.482Z,100919.63
2018-07-21T04:19:48.484Z,100919.63
2018-07-21T04:22:15.512Z,100918.98
2018-07-21T04:24:42.549Z,100912.34
2018-07-21T04:27:09.534Z,100911.52
2018-07-21T04:29:36.508Z,100913.80
2018-07-21T04:32:03.617Z,100915.28
2018-07-21T04:34:30.605Z,100917.75
2018-07-21T04:36:57.658Z,100920.72
2018-07-21T04:39:24.617Z,100919.89
2018-07-21T04:41:51.572Z,100916.69
2018-07-21T04:44:18.545Z,100918.97
2018-07-21T04:46:45.716Z,100913.95
2018-07-21T04:49:12.681Z,100921.37
2018-07-21T04:51:39.654Z,100916.69
2018-07-21T04:54:06.637Z,100917.63
2018-07-21T04:56:33.672Z,100911.14
2018-07-21T04:59:00.685Z,100911.20
2018-07-21T05:01:27.666Z,100908.84
2018-07-21T05:03:54.626Z,100916.08
2018-07-21T05:06:21.665Z,100910.52
2018-07-21T05:08:48.701Z,100916.94
2018-07-21T05:11:15.704Z,100919.84
2018-07-21T05:13:42.689Z,100913.30
2018-07-21T05:16:09.792Z,100914.39
2018-07-21T05:18:36.841Z,100906.17
2018-07-21T05:21:03.829Z,100904.63
2018-07-21T05:23:30.873Z,100908.09
2018-07-21T05:25:57.896Z,100915.81
2018-07-21T05:28:24.862Z,100910.78
2018-07-21T05:30:51.933Z,100905.74
2018-07-21T05:33:18.889Z,100913.69
2018-07-21T05:35:45.886Z,100914.59
2018-07-21T05:38:12.869Z,100914.54
2018-07-21T05:40:39.880Z,100908.01
2018-07-21T05:43:06.993Z,100908.44
2018-07-21T05:45:33.989Z,100912.00
2018-07-21T05:48:00.957Z,100912.41
2018-07-21T05:50:28.037Z,100917.13
2018-07-21T05:52:55.101Z,100916.57
2018-07-21T05:55:22.189Z,100919.50
2018-07-21T05:57:49.193Z,100915.44
2018-07-21T06:00:16.204Z,100926.20
2018-07-21T06:02:43.365Z,100917.73
2018-07-21T06:05:10.339Z,100917.99
2018-07-21T06:07:37.324Z,100923.17
2018-07-21T06:10:04.366Z,100923.97
2018-07-21T06:12:31.497Z,100925.93
2018-07-21T06:14:58.539Z,100932.02
2018-07-21T06:17:26.121Z,100942.28
2018-07-21T06:19:53.081Z,100943.74
2018-07-21T06:22:20.189Z,100935.26
2018-07-21T06:24:47.328Z,100942.04
2018-07-21T06:27:14.327Z,100942.67
2018-07-21T06:29:41.915Z,100940.70
2018-07-21T06:32:09.145Z,100935.88
2018-07-21T06:34:36.706Z,100941.98
2018-07-21T06:37:03.817Z,100942.03
2018-07-21T06:39:30.768Z,100943.30
2018-07-21T06:41:57.757Z,100943.55
2018-07-21T06:44:24.724Z,100943.75
2018-07-21T06:46:52.549Z,100941.34
2018-07-21T06:49:19.533Z,100946.00
2018-07-21T06:51:46.601Z,100939.34
2018-07-21T06:54:13.576Z,100938.73
2018-07-21T06:56:40.673Z,100941.52
2018-07-21T06:59:07.674Z,100936.59
2018-07-21T07:01:34.629Z,100941.04
2018-07-21T07:04:01.864Z,100947.74
2018-07-21T07:06:28.832Z,100958.27
2018-07-21T07:08:55.802Z,100960.17
2018-07-21T07:11:22.854Z,100959.09
2018-07-21T07:13:49.849Z,100954.80
2018-07-21T07:16:17.351Z,100964.81
2018-07-21T07:18:45.153Z,100964.59
2018-07-21T07:21:12.141Z,100967.99
2018-07-21T07:23:39.141Z,100956.86
2018-07-21T07:26:06.099Z,100955.52
2018-07-21T07:28:33.075Z,100956.38
2018-07-21T07:31:00.061Z,100954.36
2018-07-21T07:33:27.045Z,100955.98
2018-07-21T07:35:54.005Z,100960.22
2018-07-21T07:38:21.013Z,100957.28
2018-07-21T07:40:47.965Z,100965.01
2018-07-21T07:43:14.979Z,100968.30
2018-07-21T07:45:41.960Z,100971.42
2018-07-21T07:48:08.965Z,100973.82
2018-07-21T07:50:35.950Z,100974.78
2018-07-21T07:53:03.024Z,100972.30
2018-07-21T07:55:31.079Z,100977.97
2018-07-21T07:57:58.357Z,100972.34
2018-07-21T08:00:25.333Z,100967.23
2018-07-21T08:02:52.438Z,100963.44
2018-07-21T08:05:19.425Z,100963.14
2018-07-21T08:07:46.546Z,100970.20
2018-07-21T08:10:14.092Z,100971.55
2018-07-21T08:12:41.064Z,100963.42
2018-07-21T08:15:08.132Z,100970.94
2018-07-21T08:17:35.245Z,100971.12
2018-07-21T08:20:02.253Z,100971.44
2018-07-21T08:22:29.220Z,100967.75
2018-07-21T08:24:56.165Z,100961.60
2018-07-21T08:27:23.168Z,100956.66
2018-07-21T08:29:50.188Z,100953.80
2018-07-21T08:32:17.268Z,100953.81
2018-07-21T08:34:44.361Z,100953.60
2018-07-21T08:37:11.293Z,100950.38
2018-07-21T08:39:38.273Z,100950.14
2018-07-21T08:42:05.221Z,100950.46
2018-07-21T08:44:32.277Z,100956.70
2018-07-21T08:46:59.282Z,100954.45
2018-07-21T08:49:26.340Z,100960.21
2018-07-21T08:51:53.320Z,100956.10
2018-07-21T08:54:20.421Z,100946.30
2018-07-21T08:56:47.369Z,100944.55
2018-07-21T08:59:14.507Z,100945.15
2018-07-21T09:01:41.476Z,100943.17
2018-07-21T09:04:08.481Z,100935.56
2018-07-21T09:06:35.457Z,100938.97
2018-07-21T09:09:02.601Z,100940.91
2018-07-21T09:11:29.577Z,100940.30
2018-07-21T09:13:56.548Z,100943.08
2018-07-21T09:16:23.521Z,100945.66
2018-07-21T09:18:50.536Z,100941.14
2018-07-21T09:21:17.485Z,100942.16
2018-07-21T09:23:44.513Z,100937.63
2018-07-21T09:26:11.581Z,100931.67
2018-07-21T09:28:38.664Z,100931.60
2018-07-21T09:31:05.697Z,100926.71
2018-07-21T09:33:32.691Z,100932.59
2018-07-21T09:35:59.657Z,100937.86
2018-07-21T09:38:26.653Z,100939.95
2018-07-21T09:40:53.612Z,100937.89
2018-07-21T09:43:20.591Z,100933.23
2018-07-21T09:45:47.567Z,100932.80
2018-07-21T09:48:14.556Z,100935.05
2018-07-21T09:50:41.562Z,100937.15
2018-07-21T09:53:09.262Z,100934.55
2018-07-21T09:55:36.254Z,100932.31
2018-07-21T09:58:03.216Z,100918.81
2018-07-21T10:00:35.934Z,100923.20
2018-07-21T10:03:02.909Z,100911.42
2018-07-21T10:05:29.916Z,100919.41
2018-07-21T10:07:56.890Z,100919.91
2018-07-21T10:10:23.896Z,100908.03
2018-07-21T10:12:51.555Z,100907.16
2018-07-21T10:15:18.533Z,100904.68
2018-07-21T10:17:45.542Z,100906.03
2018-07-21T10:20:12.645Z,100902.28
2018-07-21T10:22:39.664Z,100904.88
2018-07-21T10:25:12.325Z,100905.83
2018-07-21T10:27:45.105Z,100907.76
2018-07-21T10:30:12.181Z,100900.58
2018-07-21T10:32:39.153Z,100910.56
2018-07-21T10:35:06.141Z,100908.83
2018-07-21T10:37:33.120Z,100904.86
2018-07-21T10:40:00.160Z,100897.13
2018-07-21T10:42:27.138Z,100900.21
2018-07-21T10:44:54.153Z,100901.86
2018-07-21T10:47:21.164Z,100902.95
2018-07-21T10:49:48.577Z,100901.34
2018-07-21T10:52:15.529Z,100905.92
2018-07-21T10:54:42.550Z,100913.75
2018-07-21T10:57:09.593Z,100900.81
2018-07-21T10:59:36.580Z,100902.84
2018-07-21T11:02:03.590Z,100905.83
2018-07-21T11:04:30.665Z,100900.45
2018-07-21T11:06:57.717Z,100901.67
2018-07-21T11:09:24.690Z,100899.80
2018-07-21T11:11:51.642Z,100898.63
2018-07-21T11:14:18.625Z,100901.25
2018-07-21T11:16:45.633Z,100904.71
2018-07-21T11:19:12.664Z,100894.78
2018-07-21T11:21:39.701Z,100890.88
2018-07-21T11:24:06.666Z,100902.28
2018-07-21T11:26:33.664Z,100904.55
2018-07-21T11:29:00.636Z,100903.20
2018-07-21T11:31:27.611Z,100904.39
2018-07-21T11:33:54.585Z,100900.81
2018-07-21T11:36:21.606Z,100899.41
2018-07-21T11:38:48.556Z,100901.70
2018-07-21T11:41:15.634Z,100892.61
2018-07-21T11:43:42.593Z,100897.46
2018-07-21T11:46:09.584Z,100892.17
2018-07-21T11:48:36.578Z,100890.70
2018-07-21T11:51:03.773Z,100879.53
2018-07-21T11:53:30.777Z,100886.73
2018-07-21T11:55:57.833Z,100874.73
2018-07-21T11:58:24.813Z,100888.14
2018-07-21T12:00:51.825Z,100893.52
2018-07-21T12:03:18.780Z,100885.45
2018-07-21T12:05:45.979Z,100891.70
2018-07-21T12:08:13.177Z,100893.52
2018-07-21T12:10:40.212Z,100893.73
2018-07-21T12:13:07.238Z,100890.06
2018-07-21T12:15:34.215Z,100894.51
2018-07-21T12:18:01.177Z,100894.67
2018-07-21T12:20:28.161Z,100897.66
2018-07-21T12:22:55.152Z,100892.77
2018-07-21T12:25:22.137Z,100887.95
2018-07-21T12:27:49.176Z,100891.61
2018-07-21T12:30:16.157Z,100885.17
2018-07-21T12:32:43.109Z,100886.50
2018-07-21T12:35:10.129Z,100882.23
2018-07-21T12:37:37.201Z,100885.64
2018-07-21T12:40:04.376Z,100880.91
2018-07-21T12:42:31.385Z,100878.86
2018-07-21T12:44:58.390Z,100877.70
2018-07-21T12:47:25.329Z,100873.02
2018-07-21T12:49:52.284Z,100874.29
2018-07-21T12:52:19.289Z,100862.72
2018-07-21T12:54:46.981Z,100877.09
2018-07-21T12:57:14.013Z,100885.52
2018-07-21T12:59:40.968Z,100879.08
2018-07-21T13:02:07.945Z,100880.73
2018-07-21T13:04:35.085Z,100881.59
2018-07-21T13:07:02.069Z,100879.45
2018-07-21T13:09:29.041Z,100877.21
2018-07-21T13:11:56.065Z,100881.00
2018-07-21T13:14:23.065Z,100878.64
2018-07-21T13:16:50.069Z,100876.63
2018-07-21T13:19:17.721Z,100874.39
2018-07-21T13:21:44.777Z,100875.03
2018-07-21T13:24:11.777Z,100875.19
2018-07-21T13:26:38.773Z,100878.02
2018-07-21T13:29:05.753Z,100874.34
2018-07-21T13:31:32.782Z,100875.25
2018-07-21T13:33:59.789Z,100876.83
2018-07-21T13:36:26.764Z,100877.25
2018-07-21T13:38:53.729Z,100878.52
2018-07-21T13:41:20.758Z,100877.91
2018-07-21T13:43:47.720Z,100872.44
2018-07-21T13:46:14.718Z,100872.30
2018-07-21T13:48:41.737Z,100870.81
2018-07-21T13:51:08.754Z,100870.70
2018-07-21T13:53:35.716Z,100867.78
2018-07-21T13:56:02.761Z,100861.17
2018-07-21T13:58:29.777Z,100861.34
2018-07-21T14:00:56.757Z,100867.19
2018-07-21T14:03:23.749Z,100862.93
2018-07-21T14:05:50.729Z,100862.66
2018-07-21T14:08:17.722Z,100861.67
2018-07-21T14:10:44.725Z,100860.55
2018-07-21T14:13:11.756Z,100859.64
2018-07-21T14:15:38.796Z,100861.08
2018-07-21T14:18:06.036Z,100869.91
2018-07-21T14:20:33.006Z,100864.45
2018-07-21T14:23:00.014Z,100861.04
2018-07-21T14:25:27.006Z,100855.16
2018-07-21T14:27:54.824Z,100860.31
2018-07-21T14:30:21.826Z,100852.66
2018-07-21T14:32:48.800Z,100852.09
2018-07-21T14:35:15.884Z,100852.61
2018-07-21T14:37:42.975Z,100848.05
2018-07-21T14:40:09.950Z,100854.48
2018-07-21T14:42:36.962Z,100853.95
2018-07-21T14:45:04.506Z,100857.42
2018-07-21T14:47:31.665Z,100859.64
2018-07-21T14:49:58.594Z,100861.25
2018-07-21T14:52:25.628Z,100864.97
2018-07-21T14:54:52.710Z,100860.31
2018-07-21T14:57:19.625Z,100863.94
2018-07-21T14:59:46.599Z,100862.54
2018-07-21T15:02:13.768Z,100859.80
2018-07-21T15:04:41.069Z,100855.81
2018-07-21T15:07:08.477Z,100851.31
2018-07-21T15:09:35.543Z,100853.78
2018-07-21T15:12:02.521Z,100851.62
2018-07-21T15:14:29.513Z,100848.30
2018-07-21T15:16:56.477Z,100853.93
2018-07-21T15:19:23.988Z,100843.53
2018-07-21T15:21:51.017Z,100850.14
2018-07-21T15:24:17.997Z,100849.27
2018-07-21T15:26:44.976Z,100842.09
2018-07-21T15:29:12.009Z,100844.40
2018-07-21T15:31:39.048Z,100839.16
2018-07-21T15:34:06.092Z,100841.42
2018-07-21T15:36:33.113Z,100837.58
2018-07-21T15:39:00.128Z,100835.41
2018-07-21T15:41:27.126Z,100831.32
2018-07-21T15:43:55.092Z,100830.49
2018-07-21T15:46:22.256Z,100826.92
2018-07-21T15:48:49.282Z,100830.44
2018-07-21T15:51:16.244Z,100826.77
2018-07-21T15:53:43.296Z,100828.96
2018-07-21T15:56:10.321Z,100825.70
2018-07-21T15:58:37.433Z,100826.70
2018-07-21T16:01:04.501Z,100826.92
2018-07-21T16:03:31.511Z,100826.81
2018-07-21T16:05:58.546Z,100830.14
2018-07-21T16:08:25.510Z,100824.95
2018-07-21T16:10:52.510Z,100817.81
2018-07-21T16:13:19.529Z,100811.45
2018-07-21T16:15:46.517Z,100810.97
2018-07-21T16:18:13.516Z,100818.69
2018-07-21T16:20:40.708Z,100810.36
2018-07-21T16:23:07.885Z,100813.31
2018-07-21T16:25:35.672Z,100808.77
2018-07-21T16:28:02.690Z,100806.33
2018-07-21T16:30:29.637Z,100811.18
2018-07-21T16:32:56.809Z,100807.61
2018-07-21T16:35:23.803Z,100811.89
2018-07-21T16:37:50.781Z,100813.17
2018-07-21T16:40:17.779Z,100800.59
2018-07-21T16:42:44.765Z,100801.62
2018-07-21T16:45:11.734Z,100797.47
2018-07-21T16:47:38.726Z,100795.79
2018-07-21T16:50:05.892Z,100792.52
2018-07-21T16:52:33.069Z,100787.82
2018-07-21T16:55:00.041Z,100785.31
2018-07-21T16:57:27.139Z,100796.52
2018-07-21T16:59:54.245Z,100789.45
2018-07-21T17:02:21.156Z,100792.59
2018-07-21T17:04:48.161Z,100786.27
2018-07-21T17:07:15.119Z,100784.59
2018-07-21T17:09:42.073Z,100784.22
2018-07-21T17:12:09.029Z,100779.20
2018-07-21T17:14:36.165Z,100774.17
2018-07-21T17:17:03.153Z,100773.56
2018-07-21T17:19:30.129Z,100776.23
2018-07-21T17:21:57.133Z,100765.13
2018-07-21T17:24:24.141Z,100774.53
2018-07-21T17:26:51.093Z,100767.05
2018-07-21T17:29:18.084Z,100764.26
2018-07-21T17:31:45.057Z,100760.58
2018-07-21T17:34:12.029Z,100759.73
2018-07-21T17:36:39.100Z,100761.84
2018-07-21T17:39:07.479Z,100760.11
2018-07-21T17:41:34.461Z,100754.98
2018-07-21T17:44:01.492Z,100753.45
2018-07-21T17:46:28.567Z,100756.77
2018-07-21T17:48:55.540Z,100749.28
2018-07-21T17:51:22.617Z,100751.56
2018-07-21T17:53:49.609Z,100750.55
2018-07-21T17:56:16.630Z,100749.63
2018-07-21T17:58:43.597Z,100750.30
2018-07-21T18:01:10.590Z,100749.07
2018-07-21T18:03:37.556Z,100749.23
2018-07-21T18:06:04.827Z,100749.39
2018-07-21T18:08:31.799Z,100747.38
2018-07-21T18:10:58.776Z,100747.79
2018-07-21T18:13:26.577Z,100746.72
2018-07-21T18:15:54.538Z,100753.64
2018-07-21T18:18:21.612Z,100745.94
2018-07-21T18:20:48.580Z,100750.44
2018-07-21T18:23:15.585Z,100748.96
2018-07-21T18:25:42.792Z,100750.20
2018-07-21T18:28:10.056Z,100752.47
2018-07-21T18:30:37.025Z,100750.66
2018-07-21T18:33:04.260Z,100747.86
2018-07-21T18:35:31.221Z,100753.73
2018-07-21T18:37:58.256Z,100750.92
2018-07-21T18:40:25.407Z,100752.16
2018-07-21T18:42:52.376Z,100748.63
2018-07-21T18:45:19.426Z,100745.15
2018-07-21T18:47:46.389Z,100747.14
2018-07-21T18:50:13.417Z,100750.22
2018-07-21T18:52:40.393Z,100754.67
2018-07-21T18:55:07.344Z,100748.05
2018-07-21T18:57:34.365Z,100746.89
2018-07-21T19:00:01.571Z,100753.41
2018-07-21T19:02:28.905Z,100748.42
2018-07-21T19:04:55.938Z,100746.03
2018-07-21T19:07:22.914Z,100745.11
2018-07-21T19:09:49.860Z,100746.32
2018-07-21T19:12:22.785Z,100743.72
2018-07-21T19:14:50.058Z,100748.67
2018-07-21T19:17:17.020Z,100751.50
2018-07-21T19:19:49.690Z,100754.28
2018-07-21T19:22:16.649Z,100756.83
2018-07-21T19:24:43.981Z,100754.23
2018-07-21T19:27:16.705Z,100759.22
2018-07-21T19:29:43.672Z,100755.06
2018-07-21T19:32:16.293Z,100755.44
2018-07-21T19:34:43.256Z,100759.08
2018-07-21T19:37:16.058Z,100752.74
2018-07-21T19:39:43.354Z,100752.28
2018-07-21T19:42:10.318Z,100762.14
2018-07-21T19:44:37.364Z,100757.22
2018-07-21T19:47:05.782Z,100764.95
2018-07-21T19:49:32.788Z,100768.82
2018-07-21T19:51:59.753Z,100771.66
2018-07-21T19:54:26.738Z,100770.45
2018-07-21T19:56:53.932Z,100771.64
2018-07-21T19:59:20.876Z,100773.66
2018-07-21T20:01:47.860Z,100779.37
2018-07-21T20:04:15.033Z,100788.39
2018-07-21T20:06:42.537Z,100783.23
2018-07-21T20:09:10.041Z,100780.70
2018-07-21T20:11:37.238Z,100777.44
2018-07-21T20:14:04.355Z,100781.06
2018-07-21T20:16:31.345Z,100781.19
2018-07-21T20:18:58.465Z,100784.81
2018-07-21T20:21:25.597Z,100788.47
2018-07-21T20:23:52.633Z,100787.79
2018-07-21T20:26:19.616Z,100795.42
2018-07-21T20:28:46.573Z,100791.64
2018-07-21T20:31:13.557Z,100787.00
2018-07-21T20:33:40.509Z,100793.61
2018-07-21T20:36:07.457Z,100802.91
2018-07-21T20:38:35.179Z,100792.42
2018-07-21T20:41:02.166Z,100797.92
2018-07-21T20:43:29.232Z,100792.17
2018-07-21T20:45:56.149Z,100799.01
2018-07-21T20:48:23.186Z,100794.59
2018-07-21T20:50:50.272Z,100800.60
2018-07-21T20:53:17.482Z,100801.34
2018-07-21T20:55:44.469Z,100796.10
2018-07-21T20:58:11.664Z,100793.89
2018-07-21T21:00:38.702Z,100796.98
2018-07-21T21:03:05.694Z,100797.19
2018-07-21T21:05:32.648Z,100802.16
2018-07-21T21:07:59.613Z,100795.90
2018-07-21T21:10:26.625Z,100801.39
2018-07-21T21:12:53.833Z,100799.11
2018-07-21T21:15:20.928Z,100800.55
2018-07-21T21:17:47.917Z,100793.17
2018-07-21T21:20:14.888Z,100802.45
2018-07-21T21:22:41.896Z,100801.02
2018-07-21T21:25:08.985Z,100796.92
2018-07-21T21:27:35.981Z,100797.38
2018-07-21T21:30:02.989Z,100791.93
2018-07-21T21:32:30.097Z,100789.45
2018-07-21T21:34:57.081Z,100795.85
2018-07-21T21:37:24.109Z,100799.04
2018-07-21T21:39:51.173Z,100787.73
2018-07-21T21:42:18.321Z,100794.11
2018-07-21T21:44:45.418Z,100794.33
2018-07-21T21:47:12.444Z,100789.69
2018-07-21T21:49:39.477Z,100792.08
2018-07-21T21:52:06.505Z,100792.81
2018-07-21T21:54:33.599Z,100797.34
2018-07-21T21:57:00.580Z,100795.17
2018-07-21T21:59:27.673Z,100794.57
2018-07-21T22:01:54.665Z,100791.30
2018-07-21T22:04:21.639Z,100793.33
2018-07-21T22:06:48.665Z,100787.98
2018-07-21T22:09:16.311Z,100792.73
2018-07-21T22:11:43.297Z,100788.95
2018-07-21T22:14:10.300Z,100791.81
2018-07-21T22:16:37.300Z,100795.31
2018-07-21T22:19:04.619Z,100794.20
2018-07-21T22:21:31.725Z,100792.04
2018-07-21T22:23:59.362Z,100789.59
2018-07-21T22:26:26.405Z,100792.96
2018-07-21T22:28:53.397Z,100790.52
2018-07-21T22:31:20.658Z,100786.41
2018-07-21T22:33:47.645Z,100789.81
2018-07-21T22:36:14.641Z,100789.22
2018-07-21T22:38:41.673Z,100792.30
2018-07-21T22:41:08.873Z,100785.02
2018-07-21T22:43:35.929Z,100785.75
2018-07-21T22:46:03.623Z,100792.11
2018-07-21T22:48:31.329Z,100792.81
2018-07-21T22:50:58.353Z,100796.41
2018-07-21T22:53:25.352Z,100798.06
2018-07-21T22:55:52.345Z,100797.66
2018-07-21T22:58:19.449Z,100792.02
2018-07-21T23:00:46.458Z,100792.20
2018-07-21T23:03:13.496Z,100789.77
2018-07-21T23:05:41.419Z,100787.59
2018-07-21T23:08:08.406Z,100793.16
2018-07-21T23:10:35.462Z,100782.37
2018-07-21T23:13:02.534Z,100785.24
2018-07-21T23:15:29.477Z,100781.36
2018-07-21T23:17:56.569Z,100788.55
2018-07-21T23:20:24.433Z,100789.28
2018-07-21T23:22:51.388Z,100786.80
2018-07-21T23:25:18.356Z,100784.25
2018-07-21T23:27:45.349Z,100783.64
2018-07-21T23:30:12.333Z,100784.05
2018-07-21T23:32:39.318Z,100783.45
2018-07-21T23:35:06.336Z,100784.08
2018-07-21T23:37:33.376Z,100784.16
2018-07-21T23:40:00.371Z,100783.45
2018-07-21T23:42:27.369Z,100783.26
2018-07-21T23:44:54.373Z,100780.70
2018-07-21T23:47:21.345Z,100782.86
2018-07-21T23:49:48.330Z,100782.97
2018-07-21T23:52:15.331Z,100777.72
2018-07-21T23:54:42.323Z,100776.97
2018-07-21T23:57:09.289Z,100776.27
2018-07-21T23:59:36.300Z,100781.11
